sensor_id;sensor_type;location;lat;lon;timestamp;P1;durP1;ratioP1;P2;durP2;ratioP2
52320;SDS011;38261;54.090;13.382;2023-11-22T00:01:22;3.77;;;1.77;;
52320;SDS011;38261;54.090;13.382;2023-11-22T00:02:44;1.80;;;1.40;;
52320;SDS011;38261;54.090;13.382;2023-11-22T00:04:08;3.00;;;1.73;;
52320;SDS011;38261;54.090;13.382;2023-11-22T00:05:31;2.70;;;1.33;;
52320;SDS011;38261;54.090;13.382;2023-11-22T00:06:53;2.20;;;1.60;;
52320;SDS011;38261;54.090;13.382;2023-11-22T00:08:15;1.93;;;1.60;;
52320;SDS011;38261;54.090;13.382;2023-11-22T00:09:37;2.37;;;1.77;;
52320;SDS011;38261;54.090;13.382;2023-11-22T00:11:00;2.13;;;1.63;;
52320;SDS011;38261;54.090;13.382;2023-11-22T00:12:22;4.43;;;1.70;;
52320;SDS011;38261;54.090;13.382;2023-11-22T00:13:44;2.20;;;1.70;;
52320;SDS011;38261;54.090;13.382;2023-11-22T00:15:07;1.60;;;1.40;;
52320;SDS011;38261;54.090;13.382;2023-11-22T00:16:32;2.80;;;1.77;;
52320;SDS011;38261;54.090;13.382;2023-11-22T00:17:54;2.10;;;1.53;;
52320;SDS011;38261;54.090;13.382;2023-11-22T00:19:16;2.10;;;1.70;;
52320;SDS011;38261;54.090;13.382;2023-11-22T00:20:39;3.90;;;1.53;;
52320;SDS011;38261;54.090;13.382;2023-11-22T00:22:01;2.13;;;1.90;;
52320;SDS011;38261;54.090;13.382;2023-11-22T00:23:33;1.87;;;1.50;;
52320;SDS011;38261;54.090;13.382;2023-11-22T00:24:55;2.90;;;2.03;;
52320;SDS011;38261;54.090;13.382;2023-11-22T00:26:17;3.30;;;2.10;;
52320;SDS011;38261;54.090;13.382;2023-11-22T00:27:39;5.33;;;2.60;;
52320;SDS011;38261;54.090;13.382;2023-11-22T00:29:01;4.40;;;2.23;;
52320;SDS011;38261;54.090;13.382;2023-11-22T00:30:23;7.27;;;2.60;;
52320;SDS011;38261;54.090;13.382;2023-11-22T00:31:46;2.20;;;1.97;;
52320;SDS011;38261;54.090;13.382;2023-11-22T00:33:08;4.27;;;2.10;;
52320;SDS011;38261;54.090;13.382;2023-11-22T00:34:30;2.93;;;2.10;;
52320;SDS011;38261;54.090;13.382;2023-11-22T00:35:52;8.70;;;2.47;;
52320;SDS011;38261;54.090;13.382;2023-11-22T00:37:18;2.87;;;2.10;;
52320;SDS011;38261;54.090;13.382;2023-11-22T00:38:40;2.50;;;1.87;;
52320;SDS011;38261;54.090;13.382;2023-11-22T00:40:02;3.03;;;1.80;;
52320;SDS011;38261;54.090;13.382;2023-11-22T00:41:32;1.90;;;1.47;;
52320;SDS011;38261;54.090;13.382;2023-11-22T00:42:54;1.33;;;1.23;;
52320;SDS011;38261;54.090;13.382;2023-11-22T00:44:16;1.70;;;1.50;;
52320;SDS011;38261;54.090;13.382;2023-11-22T00:45:39;2.73;;;1.67;;
52320;SDS011;38261;54.090;13.382;2023-11-22T00:47:02;1.27;;;1.10;;
52320;SDS011;38261;54.090;13.382;2023-11-22T00:48:24;1.87;;;1.63;;
52320;SDS011;38261;54.090;13.382;2023-11-22T00:49:46;3.43;;;1.43;;
52320;SDS011;38261;54.090;13.382;2023-11-22T00:51:09;2.10;;;1.67;;
52320;SDS011;38261;54.090;13.382;2023-11-22T00:52:32;1.87;;;1.23;;
52320;SDS011;38261;54.090;13.382;2023-11-22T00:53:54;1.53;;;1.20;;
52320;SDS011;38261;54.090;13.382;2023-11-22T00:55:16;2.80;;;1.50;;
52320;SDS011;38261;54.090;13.382;2023-11-22T00:56:38;1.80;;;1.30;;
52320;SDS011;38261;54.090;13.382;2023-11-22T00:58:01;2.77;;;1.17;;
52320;SDS011;38261;54.090;13.382;2023-11-22T00:59:26;2.40;;;1.20;;
52320;SDS011;38261;54.090;13.382;2023-11-22T01:00:48;1.20;;;1.10;;
52320;SDS011;38261;54.090;13.382;2023-11-22T01:02:10;4.30;;;0.90;;
52320;SDS011;38261;54.090;13.382;2023-11-22T01:03:32;1.33;;;1.07;;
52320;SDS011;38261;54.090;13.382;2023-11-22T01:04:55;2.97;;;1.03;;
52320;SDS011;38261;54.090;13.382;2023-11-22T01:06:17;1.67;;;1.17;;
52320;SDS011;38261;54.090;13.382;2023-11-22T01:07:39;2.00;;;0.97;;
52320;SDS011;38261;54.090;13.382;2023-11-22T01:09:01;1.30;;;1.10;;
52320;SDS011;38261;54.090;13.382;2023-11-22T01:10:24;1.20;;;0.80;;
52320;SDS011;38261;54.090;13.382;2023-11-22T01:11:46;2.37;;;1.13;;
52320;SDS011;38261;54.090;13.382;2023-11-22T01:13:08;2.17;;;1.10;;
52320;SDS011;38261;54.090;13.382;2023-11-22T01:14:30;2.43;;;1.13;;
52320;SDS011;38261;54.090;13.382;2023-11-22T01:15:53;4.00;;;1.03;;
52320;SDS011;38261;54.090;13.382;2023-11-22T01:17:16;1.73;;;1.30;;
52320;SDS011;38261;54.090;13.382;2023-11-22T01:18:38;1.37;;;1.10;;
52320;SDS011;38261;54.090;13.382;2023-11-22T01:20:03;1.90;;;1.33;;
52320;SDS011;38261;54.090;13.382;2023-11-22T01:21:26;1.17;;;0.90;;
52320;SDS011;38261;54.090;13.382;2023-11-22T01:22:48;1.00;;;0.90;;
52320;SDS011;38261;54.090;13.382;2023-11-22T01:24:10;4.60;;;1.10;;
52320;SDS011;38261;54.090;13.382;2023-11-22T01:25:32;1.30;;;1.00;;
52320;SDS011;38261;54.090;13.382;2023-11-22T01:26:54;1.17;;;1.07;;
52320;SDS011;38261;54.090;13.382;2023-11-22T01:28:17;2.17;;;1.40;;
52320;SDS011;38261;54.090;13.382;2023-11-22T01:29:39;3.43;;;1.30;;
52320;SDS011;38261;54.090;13.382;2023-11-22T01:31:01;1.93;;;1.00;;
52320;SDS011;38261;54.090;13.382;2023-11-22T01:32:23;4.00;;;1.57;;
52320;SDS011;38261;54.090;13.382;2023-11-22T01:33:46;1.40;;;1.30;;
52320;SDS011;38261;54.090;13.382;2023-11-22T01:35:09;1.33;;;1.17;;
52320;SDS011;38261;54.090;13.382;2023-11-22T01:36:31;2.60;;;1.40;;
52320;SDS011;38261;54.090;13.382;2023-11-22T01:37:54;1.90;;;1.30;;
52320;SDS011;38261;54.090;13.382;2023-11-22T01:39:18;1.73;;;1.47;;
52320;SDS011;38261;54.090;13.382;2023-11-22T01:40:43;1.73;;;1.37;;
52320;SDS011;38261;54.090;13.382;2023-11-22T01:42:06;1.80;;;1.20;;
52320;SDS011;38261;54.090;13.382;2023-11-22T01:43:30;1.40;;;1.30;;
52320;SDS011;38261;54.090;13.382;2023-11-22T01:44:53;1.67;;;1.20;;
52320;SDS011;38261;54.090;13.382;2023-11-22T01:46:21;1.53;;;1.37;;
52320;SDS011;38261;54.090;13.382;2023-11-22T01:47:45;2.50;;;1.57;;
52320;SDS011;38261;54.090;13.382;2023-11-22T01:49:08;2.20;;;1.67;;
52320;SDS011;38261;54.090;13.382;2023-11-22T01:50:31;1.43;;;1.30;;
52320;SDS011;38261;54.090;13.382;2023-11-22T01:51:55;2.80;;;1.70;;
52320;SDS011;38261;54.090;13.382;2023-11-22T01:53:17;2.93;;;1.80;;
52320;SDS011;38261;54.090;13.382;2023-11-22T01:54:40;4.93;;;1.80;;
52320;SDS011;38261;54.090;13.382;2023-11-22T01:56:04;2.00;;;1.53;;
52320;SDS011;38261;54.090;13.382;2023-11-22T01:57:26;5.73;;;2.00;;
52320;SDS011;38261;54.090;13.382;2023-11-22T01:58:49;3.97;;;1.83;;
52320;SDS011;38261;54.090;13.382;2023-11-22T02:00:12;3.20;;;2.10;;
52320;SDS011;38261;54.090;13.382;2023-11-22T02:01:36;2.20;;;2.03;;
52320;SDS011;38261;54.090;13.382;2023-11-22T02:02:59;3.07;;;2.10;;
52320;SDS011;38261;54.090;13.382;2023-11-22T02:04:22;3.05;;;2.00;;
52320;SDS011;38261;54.090;13.382;2023-11-22T02:05:44;2.03;;;1.70;;
52320;SDS011;38261;54.090;13.382;2023-11-22T02:07:07;2.50;;;2.13;;
52320;SDS011;38261;54.090;13.382;2023-11-22T02:08:29;2.03;;;1.77;;
52320;SDS011;38261;54.090;13.382;2023-11-22T02:09:51;3.13;;;1.93;;
52320;SDS011;38261;54.090;13.382;2023-11-22T02:11:16;2.13;;;1.60;;
52320;SDS011;38261;54.090;13.382;2023-11-22T02:12:43;3.13;;;2.60;;
52320;SDS011;38261;54.090;13.382;2023-11-22T02:14:05;2.17;;;1.97;;
52320;SDS011;38261;54.090;13.382;2023-11-22T02:15:28;2.40;;;2.20;;
52320;SDS011;38261;54.090;13.382;2023-11-22T02:16:51;2.20;;;1.70;;
52320;SDS011;38261;54.090;13.382;2023-11-22T02:18:13;3.10;;;2.40;;
52320;SDS011;38261;54.090;13.382;2023-11-22T02:19:36;2.60;;;2.40;;
52320;SDS011;38261;54.090;13.382;2023-11-22T02:20:58;2.40;;;2.20;;
52320;SDS011;38261;54.090;13.382;2023-11-22T02:22:21;3.83;;;2.27;;
52320;SDS011;38261;54.090;13.382;2023-11-22T02:23:43;1.93;;;1.77;;
52320;SDS011;38261;54.090;13.382;2023-11-22T02:25:06;5.87;;;2.27;;
52320;SDS011;38261;54.090;13.382;2023-11-22T02:26:28;1.63;;;1.47;;
52320;SDS011;38261;54.090;13.382;2023-11-22T02:27:52;2.80;;;1.60;;
52320;SDS011;38261;54.090;13.382;2023-11-22T02:29:14;2.77;;;1.70;;
52320;SDS011;38261;54.090;13.382;2023-11-22T02:30:37;2.30;;;2.10;;
52320;SDS011;38261;54.090;13.382;2023-11-22T02:31:59;1.70;;;1.53;;
52320;SDS011;38261;54.090;13.382;2023-11-22T02:33:21;3.80;;;1.43;;
52320;SDS011;38261;54.090;13.382;2023-11-22T02:34:43;2.17;;;2.00;;
52320;SDS011;38261;54.090;13.382;2023-11-22T02:36:07;1.80;;;1.60;;
52320;SDS011;38261;54.090;13.382;2023-11-22T02:37:34;2.20;;;2.00;;
52320;SDS011;38261;54.090;13.382;2023-11-22T02:38:56;3.30;;;1.47;;
52320;SDS011;38261;54.090;13.382;2023-11-22T02:40:19;1.93;;;1.50;;
52320;SDS011;38261;54.090;13.382;2023-11-22T02:41:42;2.90;;;1.40;;
52320;SDS011;38261;54.090;13.382;2023-11-22T02:43:04;3.77;;;1.90;;
52320;SDS011;38261;54.090;13.382;2023-11-22T02:44:30;1.83;;;1.60;;
52320;SDS011;38261;54.090;13.382;2023-11-22T02:45:53;2.90;;;2.10;;
52320;SDS011;38261;54.090;13.382;2023-11-22T02:47:15;3.97;;;3.17;;
52320;SDS011;38261;54.090;13.382;2023-11-22T02:48:37;3.63;;;1.80;;
52320;SDS011;38261;54.090;13.382;2023-11-22T02:50:01;1.77;;;1.43;;
52320;SDS011;38261;54.090;13.382;2023-11-22T02:51:24;2.03;;;1.67;;
52320;SDS011;38261;54.090;13.382;2023-11-22T02:52:47;3.13;;;1.40;;
52320;SDS011;38261;54.090;13.382;2023-11-22T02:54:09;2.40;;;1.63;;
52320;SDS011;38261;54.090;13.382;2023-11-22T02:55:31;1.00;;;0.90;;
52320;SDS011;38261;54.090;13.382;2023-11-22T02:56:53;1.67;;;1.40;;
52320;SDS011;38261;54.090;13.382;2023-11-22T02:58:16;1.20;;;1.10;;
52320;SDS011;38261;54.090;13.382;2023-11-22T02:59:42;1.40;;;1.10;;
52320;SDS011;38261;54.090;13.382;2023-11-22T03:01:05;1.70;;;1.17;;
52320;SDS011;38261;54.090;13.382;2023-11-22T03:02:28;2.03;;;1.20;;
52320;SDS011;38261;54.090;13.382;2023-11-22T03:03:51;1.93;;;1.10;;
52320;SDS011;38261;54.090;13.382;2023-11-22T03:05:13;1.60;;;1.20;;
52320;SDS011;38261;54.090;13.382;2023-11-22T03:06:35;1.30;;;1.13;;
52320;SDS011;38261;54.090;13.382;2023-11-22T03:07:57;1.10;;;1.00;;
52320;SDS011;38261;54.090;13.382;2023-11-22T03:09:20;5.90;;;1.43;;
52320;SDS011;38261;54.090;13.382;2023-11-22T03:10:44;1.30;;;1.10;;
52320;SDS011;38261;54.090;13.382;2023-11-22T03:12:06;1.43;;;1.07;;
52320;SDS011;38261;54.090;13.382;2023-11-22T03:13:30;1.83;;;1.30;;
52320;SDS011;38261;54.090;13.382;2023-11-22T03:14:52;2.07;;;1.00;;
52320;SDS011;38261;54.090;13.382;2023-11-22T03:16:20;1.53;;;1.07;;
52320;SDS011;38261;54.090;13.382;2023-11-22T03:17:42;1.57;;;1.33;;
52320;SDS011;38261;54.090;13.382;2023-11-22T03:19:05;3.00;;;1.30;;
52320;SDS011;38261;54.090;13.382;2023-11-22T03:20:28;1.57;;;1.23;;
52320;SDS011;38261;54.090;13.382;2023-11-22T03:21:50;1.60;;;0.93;;
52320;SDS011;38261;54.090;13.382;2023-11-22T03:23:12;2.30;;;1.33;;
52320;SDS011;38261;54.090;13.382;2023-11-22T03:24:38;2.37;;;1.30;;
52320;SDS011;38261;54.090;13.382;2023-11-22T03:26:00;2.27;;;1.20;;
52320;SDS011;38261;54.090;13.382;2023-11-22T03:27:23;1.17;;;1.07;;
52320;SDS011;38261;54.090;13.382;2023-11-22T03:28:45;6.80;;;1.20;;
52320;SDS011;38261;54.090;13.382;2023-11-22T03:30:07;1.87;;;1.57;;
52320;SDS011;38261;54.090;13.382;2023-11-22T03:31:33;1.47;;;1.20;;
52320;SDS011;38261;54.090;13.382;2023-11-22T03:32:56;2.40;;;1.70;;
52320;SDS011;38261;54.090;13.382;2023-11-22T03:34:18;1.50;;;1.40;;
52320;SDS011;38261;54.090;13.382;2023-11-22T03:35:41;1.53;;;1.43;;
52320;SDS011;38261;54.090;13.382;2023-11-22T03:37:03;1.40;;;1.30;;
52320;SDS011;38261;54.090;13.382;2023-11-22T03:38:25;1.20;;;1.00;;
52320;SDS011;38261;54.090;13.382;2023-11-22T03:39:48;1.53;;;1.10;;
52320;SDS011;38261;54.090;13.382;2023-11-22T03:41:10;1.53;;;1.40;;
52320;SDS011;38261;54.090;13.382;2023-11-22T03:42:32;1.40;;;1.20;;
52320;SDS011;38261;54.090;13.382;2023-11-22T03:43:54;1.70;;;1.30;;
52320;SDS011;38261;54.090;13.382;2023-11-22T03:45:16;2.00;;;1.70;;
52320;SDS011;38261;54.090;13.382;2023-11-22T03:46:39;1.30;;;1.13;;
52320;SDS011;38261;54.090;13.382;2023-11-22T03:48:01;1.80;;;1.50;;
52320;SDS011;38261;54.090;13.382;2023-11-22T03:49:24;1.73;;;1.20;;
52320;SDS011;38261;54.090;13.382;2023-11-22T03:50:46;3.53;;;1.40;;
52320;SDS011;38261;54.090;13.382;2023-11-22T03:52:10;1.57;;;1.30;;
52320;SDS011;38261;54.090;13.382;2023-11-22T03:53:32;3.30;;;2.00;;
52320;SDS011;38261;54.090;13.382;2023-11-22T03:54:54;1.40;;;1.20;;
52320;SDS011;38261;54.090;13.382;2023-11-22T03:56:18;1.47;;;1.33;;
52320;SDS011;38261;54.090;13.382;2023-11-22T03:57:40;1.60;;;1.30;;
52320;SDS011;38261;54.090;13.382;2023-11-22T03:59:03;2.43;;;1.20;;
52320;SDS011;38261;54.090;13.382;2023-11-22T04:00:25;2.10;;;1.80;;
52320;SDS011;38261;54.090;13.382;2023-11-22T04:01:47;3.37;;;1.53;;
52320;SDS011;38261;54.090;13.382;2023-11-22T04:03:09;2.00;;;1.30;;
52320;SDS011;38261;54.090;13.382;2023-11-22T04:04:31;2.20;;;1.57;;
52320;SDS011;38261;54.090;13.382;2023-11-22T04:05:53;1.47;;;1.13;;
52320;SDS011;38261;54.090;13.382;2023-11-22T04:07:16;1.73;;;1.37;;
52320;SDS011;38261;54.090;13.382;2023-11-22T04:08:38;2.77;;;1.90;;
52320;SDS011;38261;54.090;13.382;2023-11-22T04:10:00;2.37;;;1.40;;
52320;SDS011;38261;54.090;13.382;2023-11-22T04:11:22;1.50;;;1.40;;
52320;SDS011;38261;54.090;13.382;2023-11-22T04:12:44;2.03;;;1.40;;
52320;SDS011;38261;54.090;13.382;2023-11-22T04:14:07;1.97;;;1.50;;
52320;SDS011;38261;54.090;13.382;2023-11-22T04:15:30;1.87;;;1.47;;
52320;SDS011;38261;54.090;13.382;2023-11-22T04:16:53;2.70;;;1.30;;
52320;SDS011;38261;54.090;13.382;2023-11-22T04:18:16;1.70;;;1.60;;
52320;SDS011;38261;54.090;13.382;2023-11-22T04:19:38;2.60;;;1.73;;
52320;SDS011;38261;54.090;13.382;2023-11-22T04:21:01;2.37;;;1.90;;
52320;SDS011;38261;54.090;13.382;2023-11-22T04:22:26;3.10;;;1.57;;
52320;SDS011;38261;54.090;13.382;2023-11-22T04:23:48;2.30;;;1.90;;
52320;SDS011;38261;54.090;13.382;2023-11-22T04:25:10;2.73;;;1.83;;
52320;SDS011;38261;54.090;13.382;2023-11-22T04:26:35;3.10;;;1.87;;
52320;SDS011;38261;54.090;13.382;2023-11-22T04:27:58;1.73;;;1.63;;
52320;SDS011;38261;54.090;13.382;2023-11-22T04:29:21;2.17;;;1.80;;
52320;SDS011;38261;54.090;13.382;2023-11-22T04:30:43;3.17;;;2.20;;
52320;SDS011;38261;54.090;13.382;2023-11-22T04:32:05;3.93;;;2.40;;
52320;SDS011;38261;54.090;13.382;2023-11-22T04:33:27;3.07;;;2.40;;
52320;SDS011;38261;54.090;13.382;2023-11-22T04:34:50;3.10;;;2.13;;
52320;SDS011;38261;54.090;13.382;2023-11-22T04:36:12;4.07;;;2.40;;
52320;SDS011;38261;54.090;13.382;2023-11-22T04:37:34;1.90;;;1.70;;
52320;SDS011;38261;54.090;13.382;2023-11-22T04:38:56;2.77;;;1.90;;
52320;SDS011;38261;54.090;13.382;2023-11-22T04:40:19;2.53;;;2.30;;
52320;SDS011;38261;54.090;13.382;2023-11-22T04:41:41;4.10;;;2.30;;
52320;SDS011;38261;54.090;13.382;2023-11-22T04:43:03;2.50;;;2.27;;
52320;SDS011;38261;54.090;13.382;2023-11-22T04:44:25;2.10;;;1.87;;
52320;SDS011;38261;54.090;13.382;2023-11-22T04:45:47;1.90;;;1.70;;
52320;SDS011;38261;54.090;13.382;2023-11-22T04:47:09;2.43;;;1.80;;
52320;SDS011;38261;54.090;13.382;2023-11-22T04:48:32;2.10;;;1.87;;
52320;SDS011;38261;54.090;13.382;2023-11-22T04:49:54;5.37;;;2.00;;
52320;SDS011;38261;54.090;13.382;2023-11-22T04:51:16;3.13;;;1.90;;
52320;SDS011;38261;54.090;13.382;2023-11-22T04:52:38;2.37;;;2.17;;
52320;SDS011;38261;54.090;13.382;2023-11-22T04:54:01;3.10;;;2.20;;
52320;SDS011;38261;54.090;13.382;2023-11-22T04:55:23;2.00;;;1.90;;
52320;SDS011;38261;54.090;13.382;2023-11-22T04:56:45;1.97;;;1.70;;
52320;SDS011;38261;54.090;13.382;2023-11-22T04:58:07;5.33;;;2.03;;
52320;SDS011;38261;54.090;13.382;2023-11-22T04:59:30;2.20;;;1.90;;
52320;SDS011;38261;54.090;13.382;2023-11-22T05:00:52;2.43;;;1.77;;
52320;SDS011;38261;54.090;13.382;2023-11-22T05:02:14;2.73;;;1.90;;
52320;SDS011;38261;54.090;13.382;2023-11-22T05:03:37;2.20;;;1.60;;
52320;SDS011;38261;54.090;13.382;2023-11-22T05:04:59;3.00;;;2.30;;
52320;SDS011;38261;54.090;13.382;2023-11-22T05:06:22;2.10;;;1.87;;
52320;SDS011;38261;54.090;13.382;2023-11-22T05:07:44;2.33;;;1.80;;
52320;SDS011;38261;54.090;13.382;2023-11-22T05:09:06;2.10;;;1.73;;
52320;SDS011;38261;54.090;13.382;2023-11-22T05:10:28;1.87;;;1.30;;
52320;SDS011;38261;54.090;13.382;2023-11-22T05:11:50;2.10;;;1.57;;
52320;SDS011;38261;54.090;13.382;2023-11-22T05:13:13;2.63;;;1.50;;
52320;SDS011;38261;54.090;13.382;2023-11-22T05:14:36;4.13;;;2.67;;
52320;SDS011;38261;54.090;13.382;2023-11-22T05:15:58;2.43;;;2.10;;
52320;SDS011;38261;54.090;13.382;2023-11-22T05:17:22;2.63;;;2.40;;
52320;SDS011;38261;54.090;13.382;2023-11-22T05:18:45;6.00;;;1.83;;
52320;SDS011;38261;54.090;13.382;2023-11-22T05:20:07;4.03;;;2.17;;
52320;SDS011;38261;54.090;13.382;2023-11-22T05:21:32;2.60;;;1.73;;
52320;SDS011;38261;54.090;13.382;2023-11-22T05:22:54;2.90;;;2.30;;
52320;SDS011;38261;54.090;13.382;2023-11-22T05:24:16;4.70;;;2.00;;
52320;SDS011;38261;54.090;13.382;2023-11-22T05:25:39;2.40;;;2.20;;
52320;SDS011;38261;54.090;13.382;2023-11-22T05:27:01;2.13;;;1.90;;
52320;SDS011;38261;54.090;13.382;2023-11-22T05:28:23;2.20;;;1.97;;
52320;SDS011;38261;54.090;13.382;2023-11-22T05:29:45;3.70;;;2.20;;
52320;SDS011;38261;54.090;13.382;2023-11-22T05:31:15;2.13;;;1.97;;
52320;SDS011;38261;54.090;13.382;2023-11-22T05:32:38;2.50;;;2.00;;
52320;SDS011;38261;54.090;13.382;2023-11-22T05:34:00;2.10;;;2.00;;
52320;SDS011;38261;54.090;13.382;2023-11-22T05:35:22;2.40;;;2.20;;
52320;SDS011;38261;54.090;13.382;2023-11-22T05:36:44;3.13;;;2.83;;
52320;SDS011;38261;54.090;13.382;2023-11-22T05:38:06;3.90;;;3.30;;
52320;SDS011;38261;54.090;13.382;2023-11-22T05:39:30;4.03;;;2.83;;
52320;SDS011;38261;54.090;13.382;2023-11-22T05:40:52;3.83;;;2.90;;
52320;SDS011;38261;54.090;13.382;2023-11-22T05:42:14;3.47;;;2.63;;
52320;SDS011;38261;54.090;13.382;2023-11-22T05:43:36;2.80;;;2.60;;
52320;SDS011;38261;54.090;13.382;2023-11-22T05:44:58;3.23;;;2.77;;
52320;SDS011;38261;54.090;13.382;2023-11-22T05:46:23;3.30;;;2.60;;
52320;SDS011;38261;54.090;13.382;2023-11-22T05:47:48;4.10;;;3.20;;
52320;SDS011;38261;54.090;13.382;2023-11-22T05:49:10;3.97;;;3.20;;
52320;SDS011;38261;54.090;13.382;2023-11-22T05:50:33;4.37;;;3.30;;
52320;SDS011;38261;54.090;13.382;2023-11-22T05:51:55;6.30;;;3.70;;
52320;SDS011;38261;54.090;13.382;2023-11-22T05:53:17;5.43;;;3.80;;
52320;SDS011;38261;54.090;13.382;2023-11-22T05:54:41;5.70;;;3.97;;
52320;SDS011;38261;54.090;13.382;2023-11-22T05:56:03;6.47;;;4.33;;
52320;SDS011;38261;54.090;13.382;2023-11-22T05:57:29;7.13;;;4.60;;
52320;SDS011;38261;54.090;13.382;2023-11-22T05:58:52;8.50;;;5.47;;
52320;SDS011;38261;54.090;13.382;2023-11-22T06:00:14;6.87;;;4.43;;
52320;SDS011;38261;54.090;13.382;2023-11-22T06:01:37;7.00;;;4.30;;
52320;SDS011;38261;54.090;13.382;2023-11-22T06:02:59;7.20;;;4.50;;
52320;SDS011;38261;54.090;13.382;2023-11-22T06:04:21;5.80;;;3.50;;
52320;SDS011;38261;54.090;13.382;2023-11-22T06:05:43;7.50;;;4.23;;
52320;SDS011;38261;54.090;13.382;2023-11-22T06:07:06;5.93;;;3.83;;
52320;SDS011;38261;54.090;13.382;2023-11-22T06:08:28;4.90;;;3.70;;
52320;SDS011;38261;54.090;13.382;2023-11-22T06:09:50;5.00;;;3.50;;
52320;SDS011;38261;54.090;13.382;2023-11-22T06:11:13;10.60;;;4.00;;
52320;SDS011;38261;54.090;13.382;2023-11-22T06:12:36;8.57;;;4.23;;
52320;SDS011;38261;54.090;13.382;2023-11-22T06:13:59;4.37;;;3.40;;
52320;SDS011;38261;54.090;13.382;2023-11-22T06:15:21;5.10;;;3.50;;
52320;SDS011;38261;54.090;13.382;2023-11-22T06:16:44;5.97;;;3.27;;
52320;SDS011;38261;54.090;13.382;2023-11-22T06:18:06;4.30;;;3.47;;
52320;SDS011;38261;54.090;13.382;2023-11-22T06:19:28;4.20;;;3.50;;
52320;SDS011;38261;54.090;13.382;2023-11-22T06:20:50;4.57;;;3.30;;
52320;SDS011;38261;54.090;13.382;2023-11-22T06:22:12;4.30;;;3.10;;
52320;SDS011;38261;54.090;13.382;2023-11-22T06:23:34;4.20;;;3.40;;
52320;SDS011;38261;54.090;13.382;2023-11-22T06:24:57;7.23;;;3.60;;
52320;SDS011;38261;54.090;13.382;2023-11-22T06:26:19;4.50;;;3.20;;
52320;SDS011;38261;54.090;13.382;2023-11-22T06:27:41;4.50;;;3.30;;
52320;SDS011;38261;54.090;13.382;2023-11-22T06:29:03;6.03;;;3.20;;
52320;SDS011;38261;54.090;13.382;2023-11-22T06:30:26;7.97;;;4.27;;
52320;SDS011;38261;54.090;13.382;2023-11-22T06:31:48;4.73;;;3.73;;
52320;SDS011;38261;54.090;13.382;2023-11-22T06:33:10;4.90;;;3.30;;
52320;SDS011;38261;54.090;13.382;2023-11-22T06:34:32;5.07;;;3.43;;
52320;SDS011;38261;54.090;13.382;2023-11-22T06:35:57;4.50;;;3.27;;
52320;SDS011;38261;54.090;13.382;2023-11-22T06:37:19;4.63;;;3.30;;
52320;SDS011;38261;54.090;13.382;2023-11-22T06:38:42;4.90;;;3.13;;
52320;SDS011;38261;54.090;13.382;2023-11-22T06:40:04;5.90;;;4.10;;
52320;SDS011;38261;54.090;13.382;2023-11-22T06:41:27;4.57;;;3.40;;
52320;SDS011;38261;54.090;13.382;2023-11-22T06:42:50;6.13;;;3.70;;
52320;SDS011;38261;54.090;13.382;2023-11-22T06:44:13;8.97;;;3.70;;
52320;SDS011;38261;54.090;13.382;2023-11-22T06:45:35;5.67;;;3.93;;
52320;SDS011;38261;54.090;13.382;2023-11-22T06:46:57;5.40;;;3.93;;
52320;SDS011;38261;54.090;13.382;2023-11-22T06:48:19;6.70;;;3.90;;
52320;SDS011;38261;54.090;13.382;2023-11-22T06:49:41;7.03;;;4.13;;
52320;SDS011;38261;54.090;13.382;2023-11-22T06:51:04;4.80;;;3.20;;
52320;SDS011;38261;54.090;13.382;2023-11-22T06:52:28;4.43;;;3.57;;
52320;SDS011;38261;54.090;13.382;2023-11-22T06:53:50;4.93;;;3.80;;
52320;SDS011;38261;54.090;13.382;2023-11-22T06:55:17;17.63;;;15.77;;
52320;SDS011;38261;54.090;13.382;2023-11-22T06:56:40;9.23;;;7.07;;
52320;SDS011;38261;54.090;13.382;2023-11-22T06:58:02;6.63;;;4.73;;
52320;SDS011;38261;54.090;13.382;2023-11-22T06:59:24;5.60;;;4.17;;
52320;SDS011;38261;54.090;13.382;2023-11-22T07:00:46;5.07;;;3.70;;
52320;SDS011;38261;54.090;13.382;2023-11-22T07:02:08;5.53;;;4.00;;
52320;SDS011;38261;54.090;13.382;2023-11-22T07:03:31;4.63;;;3.37;;
52320;SDS011;38261;54.090;13.382;2023-11-22T07:04:53;4.70;;;4.13;;
52320;SDS011;38261;54.090;13.382;2023-11-22T07:06:15;5.43;;;3.30;;
52320;SDS011;38261;54.090;13.382;2023-11-22T07:07:38;5.37;;;3.50;;
52320;SDS011;38261;54.090;13.382;2023-11-22T07:09:00;4.90;;;3.50;;
52320;SDS011;38261;54.090;13.382;2023-11-22T07:10:23;5.00;;;4.10;;
52320;SDS011;38261;54.090;13.382;2023-11-22T07:11:45;5.87;;;4.13;;
52320;SDS011;38261;54.090;13.382;2023-11-22T07:13:07;5.90;;;4.03;;
52320;SDS011;38261;54.090;13.382;2023-11-22T07:14:29;8.30;;;4.40;;
52320;SDS011;38261;54.090;13.382;2023-11-22T07:15:52;7.20;;;3.97;;
52320;SDS011;38261;54.090;13.382;2023-11-22T07:17:15;5.40;;;3.73;;
52320;SDS011;38261;54.090;13.382;2023-11-22T07:18:39;6.83;;;3.67;;
52320;SDS011;38261;54.090;13.382;2023-11-22T07:20:02;6.93;;;3.80;;
52320;SDS011;38261;54.090;13.382;2023-11-22T07:21:30;6.23;;;3.47;;
52320;SDS011;38261;54.090;13.382;2023-11-22T07:22:52;3.77;;;3.20;;
52320;SDS011;38261;54.090;13.382;2023-11-22T07:24:19;4.77;;;3.50;;
52320;SDS011;38261;54.090;13.382;2023-11-22T07:25:41;8.23;;;4.37;;
52320;SDS011;38261;54.090;13.382;2023-11-22T07:27:03;9.90;;;5.83;;
52320;SDS011;38261;54.090;13.382;2023-11-22T07:28:25;7.43;;;6.10;;
52320;SDS011;38261;54.090;13.382;2023-11-22T07:29:47;8.93;;;6.57;;
52320;SDS011;38261;54.090;13.382;2023-11-22T07:31:10;8.40;;;6.60;;
52320;SDS011;38261;54.090;13.382;2023-11-22T07:32:33;10.23;;;6.20;;
52320;SDS011;38261;54.090;13.382;2023-11-22T07:33:58;10.47;;;6.90;;
52320;SDS011;38261;54.090;13.382;2023-11-22T07:35:23;10.67;;;6.60;;
52320;SDS011;38261;54.090;13.382;2023-11-22T07:36:45;11.83;;;7.70;;
52320;SDS011;38261;54.090;13.382;2023-11-22T07:38:08;11.10;;;7.33;;
52320;SDS011;38261;54.090;13.382;2023-11-22T07:39:33;10.70;;;6.90;;
52320;SDS011;38261;54.090;13.382;2023-11-22T07:40:57;11.30;;;7.10;;
52320;SDS011;38261;54.090;13.382;2023-11-22T07:42:19;7.87;;;5.07;;
52320;SDS011;38261;54.090;13.382;2023-11-22T07:43:43;8.20;;;5.73;;
52320;SDS011;38261;54.090;13.382;2023-11-22T07:45:06;7.90;;;6.00;;
52320;SDS011;38261;54.090;13.382;2023-11-22T07:46:31;9.77;;;6.37;;
52320;SDS011;38261;54.090;13.382;2023-11-22T07:47:54;7.10;;;4.63;;
52320;SDS011;38261;54.090;13.382;2023-11-22T07:49:19;6.53;;;5.00;;
52320;SDS011;38261;54.090;13.382;2023-11-22T07:50:43;4.97;;;4.13;;
52320;SDS011;38261;54.090;13.382;2023-11-22T07:52:08;7.57;;;4.60;;
52320;SDS011;38261;54.090;13.382;2023-11-22T07:53:35;8.73;;;4.70;;
52320;SDS011;38261;54.090;13.382;2023-11-22T07:54:58;5.80;;;4.27;;
52320;SDS011;38261;54.090;13.382;2023-11-22T07:56:22;6.13;;;4.30;;
52320;SDS011;38261;54.090;13.382;2023-11-22T07:57:44;9.13;;;3.47;;
52320;SDS011;38261;54.090;13.382;2023-11-22T07:59:06;6.10;;;4.20;;
52320;SDS011;38261;54.090;13.382;2023-11-22T08:00:29;9.60;;;4.27;;
52320;SDS011;38261;54.090;13.382;2023-11-22T08:01:51;6.17;;;4.10;;
52320;SDS011;38261;54.090;13.382;2023-11-22T08:03:15;7.33;;;4.90;;
52320;SDS011;38261;54.090;13.382;2023-11-22T08:04:40;7.53;;;4.40;;
52320;SDS011;38261;54.090;13.382;2023-11-22T08:06:02;6.27;;;3.93;;
52320;SDS011;38261;54.090;13.382;2023-11-22T08:07:24;8.67;;;4.30;;
52320;SDS011;38261;54.090;13.382;2023-11-22T08:08:48;4.90;;;3.97;;
52320;SDS011;38261;54.090;13.382;2023-11-22T08:10:10;5.73;;;3.50;;
52320;SDS011;38261;54.090;13.382;2023-11-22T08:11:40;6.87;;;3.67;;